Keaau, Hawaii
Current Conditions -  °F | °C
As of 7:53 AM on Saturday 25 Oct 2014 (Local Time) from PHTO Reporting Station
Broken Clouds Broken Clouds  
Wind Chill: 73°   Ceiling: 3800
Heat Index: 73°   Visibility: 10mi
Dew Point: 69°   Wind: 7mph
Humidity: 87%   Direction: 240°WSW
Pressure: 30.05"   Gusts: NA
Location:  19.62°N, 155.02°W
Report Text: PHTO 251753Z 24006KT 10SM BKN038 BKN046 23/21 A3005 RMK AO2 RAB07E22 SLP175 P0000 60001 T02280206 10228 20194 51019
Loading
Personal Weather Stations






























Interactive Weather Map
Tropical Storm Tracking
New forecast layout! Learn more

10-Day Weather Forecast

Advertisements
Track Severe Weather on mobile